Kamiah, ID (83536)

12:26 AM PDT on September 03, 2014 (GMT -0700)
Ash Street Kamiah | Change Station
CLOSE
Current Station
Personal Weather Station
Location: Kamiah, ID
Elevation: 1224 ft
Nearby Weather Stations

Elev 1224 ft 46.22 °N, 116.03 °W | Updated 25 seconds ago

Mostly Cloudy
Mostly Cloudy
65.3 °F
Feels Like 65.3 °F
N
7.4
Wind Variable Wind from SW
Gusts 7.4 mph

Today
High -- | Low -- °F
--% Chance of Precip.
Yesterday
High -- | Low -- °F
Precip. -- in
6:07 AM 7:18 PM
First Quarter, 59% visible
Pressure 29.72 in
Visibility 10.0 miles
Clouds Mostly Cloudy 7000 ft
Overcast 9000 ft
Dew Point 46 °F
Humidity 50%
Rainfall 0.00 in
Snow Depth Not available.
UV 0 out of 12
Pollen 6.90 out of 12
PM2.5 Good
Flu Activity Not available.
METAR KLWS 030656Z AUTO 28016G22KT 10SM BKN070 OVC090 19/08 A2975 RMK AO2 PK WND 28026/0613 SLP064 T01940078

More Conditions Fewer Conditions

Pressure 29.72 in
Visibility 10.0 miles
Clouds Mostly Cloudy 7000 ft
Overcast 9000 ft
Dew Point 46 °F
Humidity 50%
Rainfall 0.00 in
Snow Depth Not available.
UV 0 out of 12
Pollen 6.90 out of 12
PM2.5 Good
Flu Activity Not available.
METAR KLWS 030656Z AUTO 28016G22KT 10SM BKN070 OVC090 19/08 A2975 RMK AO2 PK WND 28026/0613 SLP064 T01940078

More Conditions Fewer Conditions

10-Day Weather Forecast

Almanac

Astronomy

Sep. 03, 2014 Rise Set
Actual Time 6:07 AM PDT 7:18 PM PDT
Civil Twilight 5:36 AM PDT 7:49 PM PDT
Nautical Twilight 4:59 AM PDT 8:26 PM PDT
Astronomical Twilight 4:19 AM PDT 9:05 PM PDT
Moon 3:15 PM PDT No Moon Set
Length of Visible Light 14h 13m
Length of Day
13h 11m
Tomorrow will be 3m 10s shorter.
First Quarter, 59% of the Moon is Illuminated
Today
First Quarter
Sep 8
Full
Sep 15
Last Quarter
Sep 24
New
Oct 1
First Quarter

Today's Extremes

State Highs State Lows

Community

WunderPhotos

Upload Photos

1,749,891 photos uploaded!

Nearby

Air Quality

  Air Quality AQ Index Pollutant
Yesterday Good
PM2.5
Current Good
PM2.5
Tuesday Good
PM2.5
Wednesday Good
PM2.5
Thursday Good
PM2.5

Snow Depth

Station Depth Elevation
Hemlock Butte 0 in 5810 ft
Shanghi Summit 0 in 4570 ft
Crater Meadows 0 in 5960 ft
Elk Butte 0 in 5690 ft
Sherwin 0 in 3200 ft

Earthquake Activity

City Distance Mag. Time & Date
Mullan, Idaho 85 miles 2.5 1:01 AM PDT
2014-08-31
Minimum magnitude displayed is 2.5.

Coastal Water Temperatures

Place Temperature
No Stations Reporting

Nearby Weather Stations